Time;durP1;ratioP1;P1;durP2;ratioP2;P2;SDS_P1;SDS_P2;PMS_P1;PMS_P2;Temp;Humidity;BMP_temperature;BMP_pressure;BME280_temperature;BME280_humidity;BME280_pressure;Samples;Min_cycle;Max_cycle;Signal;HPM_P1;HPM_P2
2021/01/26 00:00:13;;;;;;;20.33;10.37;;;;;;;-0.27;100.00;95855.16;5029990;28;20753;-71
2021/01/26 00:02:39;;;;;;;18.00;8.33;;;;;;;-0.22;100.00;95853.84;5027542;28;20209;-71
2021/01/26 00:05:06;;;;;;;24.40;8.80;;;;;;;-0.21;100.00;95863.28;5030224;28;20828;-71
2021/01/26 00:07:33;;;;;;;20.77;9.83;;;;;;;-0.22;100.00;95861.63;5029455;28;20715;-71
2021/01/26 00:10:00;;;;;;;19.57;9.30;;;;;;;-0.25;100.00;95863.66;5029740;28;20543;-71
2021/01/26 00:12:26;;;;;;;18.63;9.67;;;;;;;-0.29;100.00;95875.19;5028934;28;20298;-71
2021/01/26 00:14:52;;;;;;;22.17;9.97;;;;;;;-0.31;100.00;95869.31;5029782;28;20201;-71
2021/01/26 00:17:18;;;;;;;21.23;9.40;;;;;;;-0.32;100.00;95876.25;5029832;28;20617;-71
2021/01/26 00:19:44;;;;;;;19.40;9.57;;;;;;;-0.32;100.00;95878.00;5029878;28;20213;-71
2021/01/26 00:22:10;;;;;;;17.00;8.93;;;;;;;-0.30;100.00;95884.69;5030330;28;20224;-71
2021/01/26 00:24:37;;;;;;;20.87;9.83;;;;;;;-0.37;100.00;95882.72;5030075;28;20209;-71
2021/01/26 00:27:04;;;;;;;20.83;11.03;;;;;;;-0.39;100.00;95879.44;5030057;28;20237;-71
2021/01/26 00:29:30;;;;;;;22.30;11.23;;;;;;;-0.45;100.00;95885.09;5029636;28;20209;-71
2021/01/26 00:31:56;;;;;;;24.23;11.03;;;;;;;-0.50;100.00;95890.63;5030425;28;20237;-71
2021/01/26 00:34:22;;;;;;;22.47;11.37;;;;;;;-0.44;100.00;95897.09;5029214;28;20213;-71
2021/01/26 00:36:48;;;;;;;19.70;10.67;;;;;;;-0.46;100.00;95896.38;5029422;28;20238;-71
2021/01/26 00:39:14;;;;;;;19.30;9.87;;;;;;;-0.51;100.00;95901.06;5029941;28;20567;-71
2021/01/26 00:41:41;;;;;;;18.70;9.67;;;;;;;-0.51;100.00;95893.31;5029675;28;20217;-71
2021/01/26 00:44:07;;;;;;;23.43;12.23;;;;;;;-0.51;100.00;95904.50;5029666;28;20207;-71
2021/01/26 00:46:33;;;;;;;27.37;12.63;;;;;;;-0.47;100.00;95900.72;5029799;28;20775;-71
2021/01/26 00:48:59;;;;;;;23.07;11.70;;;;;;;-0.47;100.00;95905.91;5029539;28;20214;-71
2021/01/26 00:51:25;;;;;;;23.93;11.87;;;;;;;-0.41;100.00;95912.38;5028886;28;20289;-71
2021/01/26 00:53:51;;;;;;;22.43;11.20;;;;;;;-0.35;100.00;95922.25;5030291;28;20240;-71
2021/01/26 00:56:17;;;;;;;20.80;9.33;;;;;;;-0.33;100.00;95918.59;5029551;28;20621;-71
2021/01/26 00:58:44;;;;;;;27.50;13.10;;;;;;;-0.30;100.00;95922.72;5029736;28;20204;-71
2021/01/26 01:01:10;;;;;;;28.20;12.63;;;;;;;-0.37;100.00;95918.94;5030224;28;20214;-71
2021/01/26 01:03:36;;;;;;;23.03;10.73;;;;;;;-0.41;100.00;95925.31;5029997;28;20241;-71
2021/01/26 01:06:02;;;;;;;24.13;11.50;;;;;;;-0.38;100.00;95925.06;5029678;28;20658;-71
2021/01/26 01:08:28;;;;;;;27.30;12.73;;;;;;;-0.34;100.00;95924.72;5029987;28;20230;-71
2021/01/26 01:10:54;;;;;;;20.77;9.40;;;;;;;-0.35;100.00;95930.00;5029924;28;20276;-71
2021/01/26 01:13:20;;;;;;;25.90;11.73;;;;;;;-0.31;100.00;95928.84;5029626;28;20209;-71
2021/01/26 01:15:47;;;;;;;26.13;12.17;;;;;;;-0.31;100.00;95928.84;5030075;28;20202;-71
2021/01/26 01:18:13;;;;;;;27.33;12.20;;;;;;;-0.36;100.00;95939.53;5030264;28;20229;-71
2021/01/26 01:20:39;;;;;;;25.53;11.57;;;;;;;-0.32;100.00;95935.78;5030521;28;20214;-71
2021/01/26 01:23:06;;;;;;;31.07;11.70;;;;;;;-0.32;100.00;95933.19;5029931;28;20697;-71
2021/01/26 01:25:32;;;;;;;24.07;10.97;;;;;;;-0.36;100.00;95939.53;5030031;28;20306;-71
2021/01/26 01:27:58;;;;;;;22.87;11.37;;;;;;;-0.35;100.00;95942.97;5030343;28;20264;-71
2021/01/26 01:30:27;;;;;;;21.93;11.03;;;;;;;-0.40;100.00;95948.47;5030358;28;20214;-71
2021/01/26 01:32:55;;;;;;;23.67;11.40;;;;;;;-0.34;100.00;95939.44;5030412;28;20210;-71
2021/01/26 01:35:21;;;;;;;22.10;11.43;;;;;;;-0.36;100.00;95962.00;5030006;28;20213;-71
2021/01/26 01:37:49;;;;;;;24.50;12.50;;;;;;;-0.43;100.00;95950.50;5030138;28;20226;-71
2021/01/26 01:40:19;;;;;;;20.37;10.87;;;;;;;-0.51;100.00;95958.00;5030382;28;20210;-71
2021/01/26 01:42:47;;;;;;;23.37;11.90;;;;;;;-0.50;100.00;95962.25;5029656;28;20197;-71
2021/01/26 01:45:15;;;;;;;22.87;11.23;;;;;;;-0.60;100.00;95962.13;5030112;28;20221;-71
2021/01/26 01:47:43;;;;;;;22.83;11.70;;;;;;;-0.71;100.00;95971.66;5029672;28;20218;-71
2021/01/26 01:50:17;;;;;;;23.87;11.77;;;;;;;-0.80;100.00;95974.09;5030105;28;20202;-71
2021/01/26 01:52:44;;;;;;;22.80;11.20;;;;;;;-0.87;100.00;95973.72;5029752;28;20588;-71
2021/01/26 01:55:16;;;;;;;29.23;12.27;;;;;;;-0.84;100.00;95981.28;5030136;28;20198;-71
2021/01/26 01:57:47;;;;;;;25.20;12.30;;;;;;;-0.84;100.00;95980.44;5027681;28;20735;-71
2021/01/26 02:00:16;;;;;;;24.00;11.83;;;;;;;-0.86;100.00;95979.75;5030310;28;20202;-71
2021/01/26 02:02:46;;;;;;;24.67;11.33;;;;;;;-0.78;100.00;95991.13;5032661;28;20217;-71
2021/01/26 02:05:15;;;;;;;22.40;11.17;;;;;;;-0.68;100.00;95994.69;5033319;28;20229;-71
2021/01/26 02:07:41;;;;;;;18.20;9.80;;;;;;;-0.74;100.00;95992.56;5033372;28;20685;-71
2021/01/26 02:10:09;;;;;;;17.77;9.63;;;;;;;-0.69;100.00;95995.63;5033345;28;20216;-71
2021/01/26 02:12:35;;;;;;;20.40;9.97;;;;;;;-0.72;100.00;96005.41;5033341;28;20590;-71
2021/01/26 02:15:02;;;;;;;19.23;9.73;;;;;;;-0.82;100.00;96010.41;5032707;28;20201;-71
2021/01/26 02:17:41;;;;;;;19.00;9.73;;;;;;;-0.85;100.00;96004.63;5033288;28;20230;-71
2021/01/26 02:21:04;;;;;;;21.37;10.37;;;;;;;-0.90;100.00;96006.78;5033036;28;20688;-71
2021/01/26 02:24:18;;;;;;;20.80;9.53;;;;;;;-0.92;100.00;96008.63;5032849;28;20202;-71
2021/01/26 02:27:09;;;;;;;21.63;9.93;;;;;;;-0.96;100.00;96013.19;5028885;28;20226;-71
2021/01/26 02:30:03;;;;;;;22.03;10.17;;;;;;;-0.92;100.00;96014.63;5028939;28;20709;-71
2021/01/26 02:32:42;;;;;;;17.40;9.50;;;;;;;-0.89;100.00;96019.59;5031075;28;20217;-71
2021/01/26 02:35:23;;;;;;;26.03;11.37;;;;;;;-0.87;100.00;96022.88;5031003;28;20259;-71
2021/01/26 02:38:28;;;;;;;19.73;9.93;;;;;;;-0.91;100.00;96021.44;5033204;28;20241;-71
2021/01/26 02:41:03;;;;;;;19.10;9.90;;;;;;;-0.87;100.00;96033.22;5029584;28;20216;-71
2021/01/26 02:43:45;;;;;;;23.13;11.00;;;;;;;-0.93;100.00;96035.41;5032964;28;20206;-71
2021/01/26 02:46:19;;;;;;;23.00;10.30;;;;;;;-1.00;100.00;96035.06;5026937;28;20210;-71
2021/01/26 02:49:00;;;;;;;19.17;10.07;;;;;;;-1.05;100.00;96034.56;5032989;28;20205;-71
2021/01/26 02:51:34;;;;;;;22.30;10.87;;;;;;;-1.07;100.00;96033.03;5032943;28;20602;-71
2021/01/26 02:54:05;;;;;;;23.53;10.57;;;;;;;-1.03;100.00;96037.03;5032894;28;20747;-71
2021/01/26 02:56:39;;;;;;;21.90;9.90;;;;;;;-1.04;100.00;96031.06;5032925;28;20222;-71
2021/01/26 02:59:24;;;;;;;24.30;10.77;;;;;;;-1.00;100.00;96037.63;5030949;28;20706;-71
2021/01/26 03:01:59;;;;;;;18.47;9.57;;;;;;;-1.10;100.00;96041.81;5031483;28;20198;-71
2021/01/26 03:04:33;;;;;;;20.37;10.10;;;;;;;-1.01;100.00;96041.16;5031514;28;20204;-71
2021/01/26 03:07:04;;;;;;;19.30;9.37;;;;;;;-1.06;100.00;96043.28;5030066;28;20218;-71
2021/01/26 03:09:35;;;;;;;19.37;9.43;;;;;;;-1.10;100.00;96041.81;5031671;28;20226;-71
2021/01/26 03:12:06;;;;;;;17.03;9.17;;;;;;;-1.14;100.00;96050.75;5032036;28;20210;-71
2021/01/26 03:14:37;;;;;;;17.20;9.20;;;;;;;-1.14;100.00;96050.75;5030623;28;20204;-71
2021/01/26 03:17:12;;;;;;;18.37;9.50;;;;;;;-1.09;100.00;96058.19;5031619;28;20240;-71
2021/01/26 03:19:40;;;;;;;18.50;9.53;;;;;;;-1.18;100.00;96062.25;5031714;28;20585;-71
2021/01/26 03:22:09;;;;;;;17.83;9.13;;;;;;;-1.20;100.00;96058.97;5031760;28;20204;-71
2021/01/26 03:24:39;;;;;;;18.37;9.40;;;;;;;-1.19;100.00;96059.78;5032019;28;20205;-71
2021/01/26 03:27:08;;;;;;;19.20;9.97;;;;;;;-1.26;100.00;96061.19;5030565;28;20222;-71
2021/01/26 03:29:38;;;;;;;21.43;9.90;;;;;;;-1.23;100.00;96060.09;5031605;28;20210;-71
2021/01/26 03:35:26;;;;;;;20.47;9.50;;;;;;;-1.26;100.00;96061.19;5030932;28;20232;-70
2021/01/26 03:37:57;;;;;;;20.67;10.23;;;;;;;-1.26;100.00;96062.91;5031222;28;20230;-70
2021/01/26 03:40:23;;;;;;;19.30;10.07;;;;;;;-1.32;100.00;96061.59;5031233;28;20213;-70
2021/01/26 03:42:50;;;;;;;22.47;10.03;;;;;;;-1.30;100.00;96066.66;5031149;28;20225;-70
2021/01/26 03:45:16;;;;;;;25.87;11.93;;;;;;;-1.29;100.00;96069.13;5031423;28;20206;-70
2021/01/26 03:47:58;;;;;;;20.07;10.40;;;;;;;-1.27;100.00;96063.84;5031341;28;20295;-71
2021/01/26 03:50:43;;;;;;;14.77;6.77;;;;;;;-1.23;100.00;96070.44;5031378;28;20201;-71
2021/01/26 03:53:22;;;;;;;22.60;9.70;;;;;;;-1.25;100.00;96060.22;5030281;28;20232;-70
2021/01/26 03:55:58;;;;;;;18.23;9.57;;;;;;;-1.23;100.00;96064.34;5031115;28;20232;-70
2021/01/26 03:58:43;;;;;;;21.73;10.07;;;;;;;-1.19;100.00;96064.94;5031392;28;20229;-70
2021/01/26 04:01:16;;;;;;;19.97;9.17;;;;;;;-1.19;100.00;96062.38;5031095;28;20210;-70
2021/01/26 04:03:51;;;;;;;16.27;7.93;;;;;;;-1.21;100.00;96072.81;5031442;28;20210;-70
2021/01/26 04:06:25;;;;;;;13.50;6.57;;;;;;;-1.21;100.00;96069.41;5031317;28;20201;-70
2021/01/26 04:08:55;;;;;;;18.53;7.70;;;;;;;-1.18;100.00;96077.75;5030944;28;20560;-70
2021/01/26 04:11:25;;;;;;;13.30;6.33;;;;;;;-1.16;100.00;96080.22;5031681;28;20206;-70
2021/01/26 04:14:08;;;;;;;16.37;7.40;;;;;;;-1.17;100.00;96087.16;5028775;28;20677;-70
2021/01/26 04:16:41;;;;;;;20.13;8.60;;;;;;;-1.19;100.00;96083.03;5029151;28;20818;-70
2021/01/26 04:19:08;;;;;;;26.50;9.23;;;;;;;-1.17;100.00;96088.94;5030898;28;20206;-70
2021/01/26 04:21:35;;;;;;;19.00;8.50;;;;;;;-1.17;100.00;96087.16;5031127;28;20208;-70
2021/01/26 04:24:01;;;;;;;18.00;7.77;;;;;;;-1.16;100.00;96086.25;5031229;28;20203;-70
2021/01/26 04:26:32;;;;;;;17.27;8.47;;;;;;;-1.15;100.00;96090.44;5031075;28;20217;-71
2021/01/26 04:28:59;;;;;;;19.20;8.53;;;;;;;-1.15;100.00;96092.22;5031343;28;20202;-70
2021/01/26 04:31:26;;;;;;;15.57;7.57;;;;;;;-1.12;100.00;96098.00;5031326;28;20209;-70
2021/01/26 04:33:52;;;;;;;19.70;9.40;;;;;;;-1.18;100.00;96101.03;5030994;28;20201;-70
2021/01/26 04:36:21;;;;;;;18.00;7.90;;;;;;;-1.13;100.00;96098.94;5030932;28;20206;-70
2021/01/26 04:38:48;;;;;;;17.53;9.17;;;;;;;-1.15;100.00;96095.63;5031048;28;20221;-70
2021/01/26 04:41:30;;;;;;;16.03;7.90;;;;;;;-1.19;100.00;96091.63;5031359;28;21203;-70
2021/01/26 04:44:11;;;;;;;20.93;8.73;;;;;;;-1.23;100.00;96092.78;5031088;28;20205;-70
2021/01/26 04:46:45;;;;;;;17.70;8.80;;;;;;;-1.24;100.00;96089.50;5028519;28;20234;-70
2021/01/26 04:49:18;;;;;;;18.37;9.07;;;;;;;-1.22;100.00;96099.59;5031095;28;20225;-70
2021/01/26 04:52:00;;;;;;;20.00;9.17;;;;;;;-1.30;100.00;96087.34;5031429;28;20213;-70
2021/01/26 04:54:41;;;;;;;18.73;9.03;;;;;;;-1.32;100.00;96084.88;5030978;28;20669;-70
2021/01/26 04:57:25;;;;;;;17.63;8.53;;;;;;;-1.30;100.00;96087.34;5029733;28;20233;-70
2021/01/26 05:00:05;;;;;;;17.87;8.53;;;;;;;-1.31;100.00;96085.69;5031292;28;20636;-70
2021/01/26 05:02:48;;;;;;;17.80;8.17;;;;;;;-1.30;100.00;96084.75;5026120;28;20209;-70
2021/01/26 05:05:18;;;;;;;17.60;7.97;;;;;;;-1.37;100.00;96086.13;5031333;28;20271;-70
2021/01/26 05:07:49;;;;;;;17.00;8.43;;;;;;;-1.40;100.00;96084.59;5031620;28;20237;-70
2021/01/26 05:10:21;;;;;;;15.50;7.17;;;;;;;-1.33;100.00;96078.03;5031098;28;20209;-70
2021/01/26 05:12:54;;;;;;;12.43;5.40;;;;;;;-1.30;100.00;96074.41;5031226;28;20578;-70
2021/01/26 05:15:26;;;;;;;12.97;6.57;;;;;;;-1.30;100.00;96074.41;5030857;28;20264;-70
2021/01/26 05:17:59;;;;;;;16.47;8.33;;;;;;;-1.29;100.00;96086.41;5030910;28;20241;-70
2021/01/26 05:20:28;;;;;;;15.10;6.70;;;;;;;-1.33;100.00;96079.81;5030743;28;20205;-70
2021/01/26 05:22:59;;;;;;;15.67;7.70;;;;;;;-1.32;100.00;96087.44;5031359;28;20197;-70
2021/01/26 05:25:25;;;;;;;15.73;7.93;;;;;;;-1.34;100.00;96073.81;5028477;28;20212;-70
2021/01/26 05:27:52;;;;;;;12.83;5.30;;;;;;;-1.33;100.00;96090.16;5031080;28;20563;-70
2021/01/26 05:30:26;;;;;;;15.23;7.47;;;;;;;-1.31;100.00;96090.84;5030754;28;20214;-70
2021/01/26 05:32:54;;;;;;;15.07;5.93;;;;;;;-1.32;100.00;96096.94;5030920;28;20260;-71
2021/01/26 05:35:20;;;;;;;12.23;5.23;;;;;;;-1.28;100.00;96093.22;5031185;28;20263;-70
2021/01/26 05:37:47;;;;;;;14.67;6.20;;;;;;;-1.30;100.00;96101.06;5033785;28;20241;-70
2021/01/26 05:40:20;;;;;;;11.13;5.17;;;;;;;-1.26;100.00;96091.34;5020746;28;20275;-71
2021/01/26 05:42:50;;;;;;;10.97;5.50;;;;;;;-1.25;100.00;96098.16;5018810;28;20194;-71
2021/01/26 05:45:22;;;;;;;14.73;6.87;;;;;;;-1.23;100.00;96115.22;5018518;28;20228;-71
2021/01/26 05:47:59;;;;;;;15.57;6.30;;;;;;;-1.23;100.00;96115.22;5019408;28;20232;-71
2021/01/26 05:50:28;;;;;;;15.17;6.67;;;;;;;-1.23;100.00;96100.53;5018852;28;20496;-71
2021/01/26 05:53:03;;;;;;;12.93;5.90;;;;;;;-1.27;100.00;96103.47;5019169;28;20206;-71
2021/01/26 05:55:31;;;;;;;11.10;6.40;;;;;;;-1.28;100.00;96106.97;5018552;28;20209;-70
2021/01/26 05:58:06;;;;;;;13.30;6.00;;;;;;;-1.25;100.00;96113.69;5018677;28;20233;-71
2021/01/26 06:00:34;;;;;;;10.33;4.43;;;;;;;-1.23;100.00;96116.97;5019346;28;20947;-71
2021/01/26 06:03:09;;;;;;;9.63;5.00;;;;;;;-1.24;100.00;96110.16;5018931;28;20214;-71
2021/01/26 06:05:35;;;;;;;7.70;3.83;;;;;;;-1.22;100.00;96109.13;5017846;28;20205;-71
2021/01/26 06:08:19;;;;;;;16.43;7.10;;;;;;;-1.22;100.00;96112.53;5019021;28;20237;-70
2021/01/26 06:10:46;;;;;;;8.60;4.70;;;;;;;-1.18;100.00;96116.53;5018829;28;20202;-71
2021/01/26 06:13:12;;;;;;;12.50;5.60;;;;;;;-1.13;100.00;96111.88;5018375;28;20205;-72
2021/01/26 06:15:41;;;;;;;9.73;4.73;;;;;;;-1.08;100.00;96107.19;5017833;28;20213;-72
2021/01/26 06:18:16;;;;;;;12.53;5.40;;;;;;;-1.06;100.00;96107.06;5019020;28;20224;-72
2021/01/26 06:20:43;;;;;;;9.13;4.97;;;;;;;-1.02;100.00;96111.94;5018849;28;20530;-72
2021/01/26 06:23:15;;;;;;;11.67;4.67;;;;;;;-0.98;100.00;96112.50;5018369;28;20204;-70
2021/01/26 06:25:45;;;;;;;12.60;5.40;;;;;;;-0.98;100.00;96108.19;5018098;28;20688;-70
2021/01/26 06:28:22;;;;;;;9.20;4.43;;;;;;;-0.97;100.00;96106.41;5018291;28;20823;-71
2021/01/26 06:30:56;;;;;;;15.27;5.43;;;;;;;-0.98;100.00;96104.75;5018447;28;20213;-70
2021/01/26 06:33:47;;;;;;;10.97;4.53;;;;;;;-0.96;100.00;96119.22;5018630;28;20243;-70
2021/01/26 06:36:34;;;;;;;18.17;8.50;;;;;;;-0.98;100.00;96113.34;5014467;28;20259;-71
2021/01/26 06:39:22;;;;;;;10.43;5.93;;;;;;;-0.95;100.00;96109.72;5018353;28;20233;-70
2021/01/26 06:42:08;;;;;;;9.73;3.37;;;;;;;-0.90;100.00;96120.56;5019318;28;20217;-70
2021/01/26 06:44:47;;;;;;;11.70;5.53;;;;;;;-0.92;100.00;96117.25;5018573;28;20677;-70
2021/01/26 06:47:31;;;;;;;13.47;4.97;;;;;;;-0.88;100.00;96118.66;5018109;28;20225;-70
2021/01/26 06:50:02;;;;;;;9.70;4.50;;;;;;;-0.85;100.00;96123.59;5017691;28;20201;-70
2021/01/26 06:52:45;;;;;;;11.47;5.73;;;;;;;-0.87;100.00;96131.47;5018628;28;20201;-70
2021/01/26 06:55:28;;;;;;;9.70;4.60;;;;;;;-0.88;100.00;96131.59;5017794;28;20674;-71
2021/01/26 06:58:06;;;;;;;10.60;4.93;;;;;;;-0.84;100.00;96138.19;5017933;28;20226;-71
2021/01/26 07:00:55;;;;;;;9.17;3.83;;;;;;;-0.92;100.00;96137.94;5018896;28;20201;-73
2021/01/26 07:03:59;;;;;;;7.93;4.37;;;;;;;-0.98;100.00;96149.56;5018274;28;20295;-70
2021/01/26 07:07:02;;;;;;;11.97;5.97;;;;;;;-0.96;100.00;96152.84;5017802;28;20211;-71
2021/01/26 07:09:54;;;;;;;10.63;5.00;;;;;;;-0.94;100.00;96138.03;5018009;28;20220;-71
2021/01/26 07:12:35;;;;;;;11.00;5.20;;;;;;;-0.99;100.00;96157.41;5018445;28;20209;-70
2021/01/26 07:15:26;;;;;;;10.53;5.20;;;;;;;-0.96;100.00;96154.59;5017620;28;20256;-73
2021/01/26 07:18:11;;;;;;;8.43;4.63;;;;;;;-0.96;100.00;96152.03;5018595;28;20230;-73
2021/01/26 07:20:46;;;;;;;9.13;4.43;;;;;;;-0.97;100.00;96158.97;5018045;28;20205;-72
2021/01/26 07:23:26;;;;;;;9.17;4.17;;;;;;;-0.98;100.00;96164.22;5018340;28;20209;-70
2021/01/26 07:26:07;;;;;;;10.37;4.53;;;;;;;-1.02;100.00;96175.72;5017374;28;20209;-71
2021/01/26 07:28:59;;;;;;;6.57;3.83;;;;;;;-1.04;100.00;96175.03;5017793;28;20248;-70
2021/01/26 07:31:30;;;;;;;12.27;5.93;;;;;;;-1.02;100.00;96178.31;5018380;28;20244;-70
2021/01/26 07:34:15;;;;;;;13.40;5.27;;;;;;;-0.98;100.00;96177.16;5018063;28;20205;-71
2021/01/26 07:36:47;;;;;;;10.37;4.97;;;;;;;-1.01;100.00;96180.78;5016893;28;20252;-71
2021/01/26 07:39:19;;;;;;;9.50;4.50;;;;;;;-1.05;100.00;96189.69;5017902;28;20436;-70
2021/01/26 07:41:54;;;;;;;10.40;6.13;;;;;;;-1.04;100.00;96186.19;5017758;28;20198;-70
2021/01/26 07:44:26;;;;;;;7.40;3.80;;;;;;;-1.02;100.00;96192.06;5017808;28;20204;-70
2021/01/26 07:46:58;;;;;;;11.50;5.90;;;;;;;-1.00;100.00;96181.63;5016789;28;20234;-70
2021/01/26 07:49:30;;;;;;;8.23;4.17;;;;;;;-0.97;100.00;96192.56;5017915;28;20205;-71
2021/01/26 07:52:01;;;;;;;11.73;5.23;;;;;;;-0.95;100.00;96211.38;5017196;28;20217;-70
2021/01/26 07:54:34;;;;;;;9.60;4.37;;;;;;;-0.90;100.00;96203.31;5017599;28;20233;-71
2021/01/26 07:57:03;;;;;;;10.23;5.00;;;;;;;-0.88;100.00;96199.69;5016981;28;20222;-71
2021/01/26 07:59:32;;;;;;;20.83;4.80;;;;;;;-0.87;100.00;96196.13;5017125;28;20205;-70
2021/01/26 08:02:00;;;;;;;8.50;3.43;;;;;;;-0.88;100.00;96212.63;5017469;28;20209;-71
2021/01/26 08:04:28;;;;;;;9.40;4.37;;;;;;;-0.92;100.00;96200.00;5017560;28;20305;-70
2021/01/26 08:06:57;;;;;;;10.70;4.53;;;;;;;-0.87;100.00;96198.72;5016948;28;20221;-70
2021/01/26 08:09:33;;;;;;;9.83;5.17;;;;;;;-0.85;100.00;96209.78;5017253;28;20218;-71
2021/01/26 08:12:03;;;;;;;7.50;3.70;;;;;;;-0.84;100.00;96208.88;5017209;28;20735;-70
2021/01/26 08:14:41;;;;;;;13.27;5.93;;;;;;;-0.88;100.00;96202.25;5016702;28;20233;-70
2021/01/26 08:17:11;;;;;;;7.93;3.23;;;;;;;-0.91;100.00;96215.41;5015696;28;20233;-70
2021/01/26 08:19:43;;;;;;;8.27;4.60;;;;;;;-0.86;100.00;96205.56;5017439;28;20762;-70
2021/01/26 08:22:22;;;;;;;11.73;5.37;;;;;;;-0.80;100.00;96224.97;5017465;28;20206;-70
2021/01/26 08:24:59;;;;;;;8.00;3.23;;;;;;;-0.78;100.00;96218.75;5016800;28;20252;-70
2021/01/26 08:27:52;;;;;;;13.27;4.70;;;;;;;-0.73;100.00;96227.00;5016021;28;20222;-73
2021/01/26 08:30:59;;;;;;;12.57;5.50;;;;;;;-0.84;100.00;96221.81;5017726;28;20213;-73
2021/01/26 08:33:27;;;;;;;11.73;4.90;;;;;;;-0.75;100.00;96228.91;5015558;28;20669;-70
2021/01/26 08:36:19;;;;;;;10.03;4.93;;;;;;;-0.79;100.00;96237.81;5016010;28;20746;-71
2021/01/26 08:38:52;;;;;;;7.10;4.10;;;;;;;-0.77;100.00;96246.28;5017068;28;20225;-71
2021/01/26 08:41:42;;;;;;;10.17;4.40;;;;;;;-0.82;100.00;96244.97;5016609;28;20201;-71
2021/01/26 08:44:11;;;;;;;7.50;4.03;;;;;;;-0.82;100.00;96227.66;5016659;28;20253;-70
2021/01/26 08:46:41;;;;;;;8.30;3.73;;;;;;;-0.81;100.00;96249.22;5016043;28;20225;-71
2021/01/26 08:49:20;;;;;;;8.87;4.60;;;;;;;-0.80;100.00;96241.34;5016497;28;20263;-70
2021/01/26 08:51:47;;;;;;;12.97;5.77;;;;;;;-0.82;100.00;96253.53;5016730;28;20205;-70
2021/01/26 08:54:39;;;;;;;11.23;5.23;;;;;;;-0.87;100.00;96255.63;5016487;28;20252;-71
2021/01/26 08:57:40;;;;;;;9.63;4.70;;;;;;;-0.90;100.00;96261.03;5015344;28;20221;-70
2021/01/26 09:00:41;;;;;;;11.50;4.40;;;;;;;-0.72;100.00;96248.56;5016199;28;20657;-70
2021/01/26 09:03:29;;;;;;;8.53;4.53;;;;;;;-0.62;100.00;96263.31;4974877;28;20203;-70
2021/01/26 09:05:57;;;;;;;5.83;3.20;;;;;;;-0.63;100.00;96256.47;5013010;28;20203;-69
2021/01/26 09:08:47;;;;;;;11.90;4.73;;;;;;;-0.59;100.00;96268.25;5016445;28;20232;-69
2021/01/26 09:11:15;;;;;;;12.40;5.77;;;;;;;-0.62;100.00;96268.47;5016723;28;20563;-69
2021/01/26 09:13:44;;;;;;;5.70;3.47;;;;;;;-0.67;100.00;96275.75;5020281;28;20205;-68
2021/01/26 09:16:17;;;;;;;9.40;4.50;;;;;;;-0.61;100.00;96277.91;5019922;28;20205;-69
2021/01/26 09:18:44;;;;;;;12.03;5.23;;;;;;;-0.53;100.00;96286.75;5020602;28;20328;-70
2021/01/26 09:21:13;;;;;;;9.40;5.00;;;;;;;-0.61;100.00;96298.59;5020125;28;20856;-69
2021/01/26 09:23:41;;;;;;;10.10;5.03;;;;;;;-0.63;100.00;96305.63;5020409;28;20604;-69
2021/01/26 09:26:10;;;;;;;8.00;4.00;;;;;;;-0.54;100.00;96299.81;5019512;28;20198;-69
2021/01/26 09:28:39;;;;;;;17.50;6.57;;;;;;;-0.57;100.00;96302.63;5020013;28;20213;-69
2021/01/26 09:31:08;;;;;;;11.17;5.67;;;;;;;-0.42;100.00;96298.91;5020889;28;20207;-70
2021/01/26 09:33:34;;;;;;;11.10;5.33;;;;;;;-0.44;100.00;96293.84;5021064;28;20587;-69
2021/01/26 09:36:12;;;;;;;10.43;4.77;;;;;;;-0.42;100.00;96306.69;5019114;28;20202;-70
2021/01/26 09:38:41;;;;;;;12.57;4.63;;;;;;;-0.43;100.00;96299.88;5019779;28;20287;-70
2021/01/26 09:41:17;;;;;;;12.03;5.27;;;;;;;-0.41;100.00;96305.75;5020435;28;20267;-69
2021/01/26 09:43:44;;;;;;;11.10;4.57;;;;;;;-0.35;100.00;96297.56;5020026;28;20221;-70
2021/01/26 09:46:14;;;;;;;14.10;5.67;;;;;;;-0.34;100.00;96301.81;5019277;28;20256;-69
2021/01/26 09:48:42;;;;;;;14.67;6.27;;;;;;;-0.31;100.00;96298.97;5019981;28;20217;-70
2021/01/26 09:51:23;;;;;;;10.63;4.60;;;;;;;-0.32;100.00;96315.44;5019792;28;20276;-70
2021/01/26 09:54:00;;;;;;;10.97;5.40;;;;;;;-0.33;100.00;96314.63;5019628;28;20198;-69
2021/01/26 09:56:27;;;;;;;13.70;6.70;;;;;;;-0.24;100.00;96313.13;5018877;28;20209;-70
2021/01/26 09:58:54;;;;;;;13.73;6.53;;;;;;;-0.22;100.00;96322.44;5019543;28;20222;-69
2021/01/26 10:01:22;;;;;;;14.03;4.77;;;;;;;-0.26;100.00;96309.84;5019675;28;20214;-69
2021/01/26 10:03:52;;;;;;;17.60;6.00;;;;;;;-0.26;100.00;96310.66;5019793;28;20198;-70
2021/01/26 10:06:18;;;;;;;13.13;6.40;;;;;;;-0.19;100.00;96317.06;5019095;28;20218;-69
2021/01/26 10:08:44;;;;;;;12.27;5.97;;;;;;;-0.16;100.00;96316.00;5019122;28;21569;-70
2021/01/26 10:11:14;;;;;;;13.83;5.57;;;;;;;-0.11;100.00;96319.09;5019423;28;20284;-69
2021/01/26 10:13:41;;;;;;;15.30;5.60;;;;;;;-0.07;100.00;96331.69;5019353;28;20209;-70
2021/01/26 10:16:30;;;;;;;11.20;5.67;;;;;;;-0.06;100.00;96327.34;5018682;28;20691;-70
2021/01/26 10:18:58;;;;;;;11.37;4.93;;;;;;;-0.11;100.00;96319.09;5019319;28;20596;-70
2021/01/26 10:21:27;;;;;;;15.27;6.40;;;;;;;-0.22;100.00;96335.38;5019414;28;20240;-70
2021/01/26 10:24:00;;;;;;;9.67;4.73;;;;;;;-0.22;100.00;96316.44;5018804;28;20581;-70
2021/01/26 10:26:28;;;;;;;14.53;6.07;;;;;;;-0.14;100.00;96314.13;5018190;28;20237;-70
2021/01/26 10:29:13;;;;;;;14.83;6.30;;;;;;;-0.15;100.00;96322.81;5019339;28;20205;-70
2021/01/26 10:31:46;;;;;;;13.03;5.80;;;;;;;-0.02;100.00;96325.25;5018758;28;20296;-71
2021/01/26 10:34:33;;;;;;;11.43;5.77;;;;;;;0.01;100.00;96319.84;5019341;28;20201;-70
2021/01/26 10:37:09;;;;;;;16.93;5.67;;;;;;;0.04;100.00;96326.56;5018888;28;20258;-70
2021/01/26 10:39:35;;;;;;;10.53;4.77;;;;;;;0.08;100.00;96323.63;5018534;28;20230;-70
2021/01/26 10:42:04;;;;;;;8.90;3.87;;;;;;;0.12;100.00;96322.47;5018653;28;20259;-70
2021/01/26 10:44:31;;;;;;;10.23;4.47;;;;;;;0.25;100.00;96327.59;5019751;28;20272;-70
2021/01/26 10:46:58;;;;;;;11.87;4.73;;;;;;;0.31;100.00;96317.59;5017827;28;20563;-70
2021/01/26 10:49:30;;;;;;;11.27;4.67;;;;;;;0.30;100.00;96333.25;5018357;28;21011;-70
2021/01/26 10:51:57;;;;;;;7.57;3.43;;;;;;;0.29;100.00;96323.81;5018963;28;20208;-71
2021/01/26 10:54:24;;;;;;;13.43;6.33;;;;;;;0.31;100.00;96324.56;5018661;28;20212;-71
2021/01/26 10:56:50;;;;;;;7.00;3.43;;;;;;;0.37;100.00;96327.50;5017800;28;20236;-71
2021/01/26 10:59:16;;;;;;;10.43;4.40;;;;;;;0.46;100.00;96326.81;5018797;28;20317;-71
2021/01/26 11:01:43;;;;;;;15.27;4.90;;;;;;;0.50;100.00;96328.25;5018411;28;20210;-71
2021/01/26 11:04:11;;;;;;;10.50;5.50;;;;;;;0.46;100.00;96326.81;5018598;28;20293;-71
2021/01/26 11:06:37;;;;;;;12.17;5.40;;;;;;;0.53;100.00;96327.19;5018022;28;20226;-71
2021/01/26 11:09:05;;;;;;;11.27;5.47;;;;;;;0.57;100.00;96328.63;5018480;28;20202;-71
2021/01/26 11:11:31;;;;;;;13.17;6.17;;;;;;;0.53;100.00;96327.19;5018303;28;20207;-71
2021/01/26 11:13:59;;;;;;;8.10;3.70;;;;;;;0.54;100.00;96336.63;5018546;28;20205;-72
2021/01/26 11:16:26;;;;;;;14.77;6.37;;;;;;;0.49;100.00;96338.72;5017779;28;20248;-71
2021/01/26 11:18:52;;;;;;;7.73;4.30;;;;;;;0.45;100.00;96343.31;5017634;28;20230;-71
2021/01/26 11:21:19;;;;;;;15.53;4.67;;;;;;;0.47;100.00;96344.03;5018217;28;20225;-72
2021/01/26 11:23:45;;;;;;;11.73;4.30;;;;;;;0.43;100.00;96342.59;5018299;28;20201;-71
2021/01/26 11:26:14;;;;;;;9.97;4.73;;;;;;;0.48;100.00;96343.06;5017602;28;20201;-71
2021/01/26 11:28:40;;;;;;;18.37;6.10;;;;;;;0.55;100.00;96341.69;5017998;28;20202;-71
2021/01/26 11:31:06;;;;;;;11.83;5.13;;;;;;;0.63;100.00;96341.94;5017869;28;20224;-72
2021/01/26 11:33:32;;;;;;;10.10;3.47;;;;;;;0.63;100.00;96336.75;5017886;28;20212;-72
2021/01/26 11:35:59;;;;;;;10.70;4.90;;;;;;;0.68;100.00;96340.66;5016611;28;20246;-72
2021/01/26 11:38:26;;;;;;;12.33;5.60;;;;;;;0.64;100.00;96334.03;5017789;28;20707;-72
2021/01/26 11:40:52;;;;;;;10.07;5.07;;;;;;;0.71;100.00;96332.66;5018099;28;20202;-71
2021/01/26 11:43:18;;;;;;;11.93;5.57;;;;;;;0.77;100.00;96331.34;5017532;28;20206;-71
2021/01/26 11:45:45;;;;;;;12.30;6.10;;;;;;;0.85;100.00;96326.41;5017262;28;20662;-71